sensor_id;sensor_type;location;lat;lon;timestamp;P1;durP1;ratioP1;P2;durP2;ratioP2
47161;SDS011;32921;53.256;8.198;2023-12-14T00:00:18;598.67;;;553.08;;
47161;SDS011;32921;53.256;8.198;2023-12-14T00:02:44;596.83;;;552.28;;
47161;SDS011;32921;53.256;8.198;2023-12-14T00:05:10;601.50;;;557.13;;
47161;SDS011;32921;53.256;8.198;2023-12-14T00:07:35;619.03;;;572.45;;
47161;SDS011;32921;53.256;8.198;2023-12-14T00:10:01;669.22;;;618.55;;
47161;SDS011;32921;53.256;8.198;2023-12-14T00:12:28;618.35;;;571.42;;
47161;SDS011;32921;53.256;8.198;2023-12-14T00:14:54;646.78;;;597.78;;
47161;SDS011;32921;53.256;8.198;2023-12-14T00:17:19;616.25;;;569.50;;
47161;SDS011;32921;53.256;8.198;2023-12-14T00:19:45;642.58;;;594.03;;
47161;SDS011;32921;53.256;8.198;2023-12-14T00:22:11;637.15;;;588.80;;
47161;SDS011;32921;53.256;8.198;2023-12-14T00:24:36;591.78;;;547.22;;
47161;SDS011;32921;53.256;8.198;2023-12-14T00:27:02;577.88;;;534.95;;
47161;SDS011;32921;53.256;8.198;2023-12-14T00:29:28;593.05;;;549.22;;
47161;SDS011;32921;53.256;8.198;2023-12-14T00:31:53;567.55;;;526.00;;
47161;SDS011;32921;53.256;8.198;2023-12-14T00:34:19;602.40;;;557.53;;
47161;SDS011;32921;53.256;8.198;2023-12-14T00:36:44;609.20;;;563.47;;
47161;SDS011;32921;53.256;8.198;2023-12-14T00:39:10;553.28;;;513.28;;
47161;SDS011;32921;53.256;8.198;2023-12-14T00:41:36;576.97;;;535.17;;
47161;SDS011;32921;53.256;8.198;2023-12-14T00:44:01;530.58;;;491.45;;
47161;SDS011;32921;53.256;8.198;2023-12-14T00:46:27;565.92;;;524.88;;
47161;SDS011;32921;53.256;8.198;2023-12-14T00:48:52;559.78;;;518.67;;
47161;SDS011;32921;53.256;8.198;2023-12-14T00:51:18;595.17;;;551.20;;
47161;SDS011;32921;53.256;8.198;2023-12-14T00:53:44;552.72;;;512.35;;
47161;SDS011;32921;53.256;8.198;2023-12-14T00:56:09;522.70;;;486.05;;
47161;SDS011;32921;53.256;8.198;2023-12-14T00:58:35;449.23;;;417.88;;
47161;SDS011;32921;53.256;8.198;2023-12-14T01:01:00;536.60;;;498.35;;
47161;SDS011;32921;53.256;8.198;2023-12-14T01:03:26;524.83;;;486.73;;
47161;SDS011;32921;53.256;8.198;2023-12-14T01:05:51;480.42;;;446.70;;
47161;SDS011;32921;53.256;8.198;2023-12-14T01:08:17;492.40;;;457.83;;
47161;SDS011;32921;53.256;8.198;2023-12-14T01:10:42;508.85;;;472.13;;
47161;SDS011;32921;53.256;8.198;2023-12-14T01:13:08;457.88;;;425.83;;
47161;SDS011;32921;53.256;8.198;2023-12-14T01:15:34;458.08;;;425.98;;
47161;SDS011;32921;53.256;8.198;2023-12-14T01:18:00;517.90;;;480.83;;
47161;SDS011;32921;53.256;8.198;2023-12-14T01:20:25;521.80;;;483.45;;
47161;SDS011;32921;53.256;8.198;2023-12-14T01:22:51;563.13;;;520.60;;
47161;SDS011;32921;53.256;8.198;2023-12-14T01:25:16;660.15;;;609.33;;
47161;SDS011;32921;53.256;8.198;2023-12-14T01:27:42;652.50;;;603.22;;
47161;SDS011;32921;53.256;8.198;2023-12-14T01:30:08;623.17;;;575.70;;
47161;SDS011;32921;53.256;8.198;2023-12-14T01:32:33;620.35;;;573.95;;
47161;SDS011;32921;53.256;8.198;2023-12-14T01:34:59;644.83;;;596.70;;
47161;SDS011;32921;53.256;8.198;2023-12-14T01:37:25;678.78;;;626.85;;
47161;SDS011;32921;53.256;8.198;2023-12-14T01:39:50;638.33;;;590.63;;
47161;SDS011;32921;53.256;8.198;2023-12-14T01:42:16;685.60;;;634.58;;
47161;SDS011;32921;53.256;8.198;2023-12-14T01:44:41;739.72;;;681.47;;
47161;SDS011;32921;53.256;8.198;2023-12-14T01:47:07;711.25;;;656.45;;
47161;SDS011;32921;53.256;8.198;2023-12-14T01:49:32;758.28;;;699.03;;
47161;SDS011;32921;53.256;8.198;2023-12-14T01:51:58;775.88;;;713.95;;
47161;SDS011;32921;53.256;8.198;2023-12-14T01:54:24;765.60;;;704.58;;
47161;SDS011;32921;53.256;8.198;2023-12-14T01:56:49;755.97;;;696.03;;
47161;SDS011;32921;53.256;8.198;2023-12-14T01:59:15;753.60;;;694.58;;
47161;SDS011;32921;53.256;8.198;2023-12-14T02:01:42;787.95;;;724.78;;
47161;SDS011;32921;53.256;8.198;2023-12-14T02:04:12;794.92;;;730.40;;
47161;SDS011;32921;53.256;8.198;2023-12-14T02:06:38;792.45;;;728.25;;
47161;SDS011;32921;53.256;8.198;2023-12-14T02:09:05;785.67;;;721.28;;
47161;SDS011;32921;53.256;8.198;2023-12-14T02:11:30;822.00;;;753.58;;
47161;SDS011;32921;53.256;8.198;2023-12-14T02:13:56;798.20;;;732.60;;
47161;SDS011;32921;53.256;8.198;2023-12-14T02:16:22;827.45;;;758.65;;
47161;SDS011;32921;53.256;8.198;2023-12-14T02:18:47;811.88;;;745.35;;
47161;SDS011;32921;53.256;8.198;2023-12-14T02:21:13;821.95;;;755.08;;
47161;SDS011;32921;53.256;8.198;2023-12-14T02:23:43;807.65;;;740.85;;
47161;SDS011;32921;53.256;8.198;2023-12-14T02:26:09;813.13;;;745.97;;
47161;SDS011;32921;53.256;8.198;2023-12-14T02:28:34;820.20;;;752.10;;
47161;SDS011;32921;53.256;8.198;2023-12-14T02:31:00;796.00;;;731.80;;
47161;SDS011;32921;53.256;8.198;2023-12-14T02:33:26;825.17;;;757.53;;
47161;SDS011;32921;53.256;8.198;2023-12-14T02:35:51;811.83;;;745.55;;
47161;SDS011;32921;53.256;8.198;2023-12-14T02:38:17;830.00;;;762.20;;
47161;SDS011;32921;53.256;8.198;2023-12-14T02:40:42;805.55;;;740.22;;
47161;SDS011;32921;53.256;8.198;2023-12-14T02:43:08;803.17;;;737.08;;
47161;SDS011;32921;53.256;8.198;2023-12-14T02:45:33;780.70;;;717.20;;
47161;SDS011;32921;53.256;8.198;2023-12-14T02:47:59;794.50;;;728.20;;
47161;SDS011;32921;53.256;8.198;2023-12-14T02:50:25;807.58;;;741.65;;
47161;SDS011;32921;53.256;8.198;2023-12-14T02:52:50;820.58;;;754.08;;
47161;SDS011;32921;53.256;8.198;2023-12-14T02:55:16;822.22;;;754.90;;
47161;SDS011;32921;53.256;8.198;2023-12-14T02:57:41;836.60;;;768.05;;
47161;SDS011;32921;53.256;8.198;2023-12-14T03:00:07;833.35;;;765.28;;
47161;SDS011;32921;53.256;8.198;2023-12-14T03:02:33;825.97;;;758.13;;
47161;SDS011;32921;53.256;8.198;2023-12-14T03:04:59;792.22;;;726.95;;
47161;SDS011;32921;53.256;8.198;2023-12-14T03:07:25;790.72;;;725.75;;
47161;SDS011;32921;53.256;8.198;2023-12-14T03:09:50;789.17;;;724.00;;
47161;SDS011;32921;53.256;8.198;2023-12-14T03:12:16;835.00;;;766.17;;
47161;SDS011;32921;53.256;8.198;2023-12-14T03:14:41;813.85;;;746.00;;
47161;SDS011;32921;53.256;8.198;2023-12-14T03:17:07;813.63;;;746.58;;
47161;SDS011;32921;53.256;8.198;2023-12-14T03:19:38;818.05;;;750.70;;
47161;SDS011;32921;53.256;8.198;2023-12-14T03:22:05;818.03;;;750.25;;
47161;SDS011;32921;53.256;8.198;2023-12-14T03:24:30;819.20;;;752.10;;
47161;SDS011;32921;53.256;8.198;2023-12-14T03:26:56;827.67;;;759.75;;
47161;SDS011;32921;53.256;8.198;2023-12-14T03:29:22;809.67;;;743.10;;
47161;SDS011;32921;53.256;8.198;2023-12-14T03:31:47;848.45;;;779.80;;
47161;SDS011;32921;53.256;8.198;2023-12-14T03:34:13;805.97;;;739.63;;
47161;SDS011;32921;53.256;8.198;2023-12-14T03:36:38;803.13;;;737.65;;
47161;SDS011;32921;53.256;8.198;2023-12-14T03:39:04;790.97;;;727.03;;
47161;SDS011;32921;53.256;8.198;2023-12-14T03:41:31;799.35;;;734.45;;
47161;SDS011;32921;53.256;8.198;2023-12-14T03:43:57;813.35;;;745.63;;
47161;SDS011;32921;53.256;8.198;2023-12-14T03:46:23;784.83;;;720.72;;
47161;SDS011;32921;53.256;8.198;2023-12-14T03:48:48;839.17;;;770.17;;
47161;SDS011;32921;53.256;8.198;2023-12-14T03:51:17;823.45;;;755.63;;
47161;SDS011;32921;53.256;8.198;2023-12-14T03:56:11;730.67;;;673.10;;
47161;SDS011;32921;53.256;8.198;2023-12-14T03:58:37;815.55;;;748.13;;
47161;SDS011;32921;53.256;8.198;2023-12-14T04:01:03;812.53;;;745.38;;
47161;SDS011;32921;53.256;8.198;2023-12-14T04:03:29;801.00;;;735.15;;
47161;SDS011;32921;53.256;8.198;2023-12-14T04:05:54;822.95;;;755.63;;
47161;SDS011;32921;53.256;8.198;2023-12-14T04:08:20;777.30;;;713.45;;
47161;SDS011;32921;53.256;8.198;2023-12-14T04:10:45;775.22;;;711.95;;
47161;SDS011;32921;53.256;8.198;2023-12-14T04:13:11;821.17;;;753.20;;
47161;SDS011;32921;53.256;8.198;2023-12-14T04:15:37;770.00;;;707.28;;
47161;SDS011;32921;53.256;8.198;2023-12-14T04:18:03;785.30;;;722.20;;
47161;SDS011;32921;53.256;8.198;2023-12-14T04:20:28;759.75;;;699.35;;
47161;SDS011;32921;53.256;8.198;2023-12-14T04:22:54;784.58;;;722.15;;
47161;SDS011;32921;53.256;8.198;2023-12-14T04:25:20;735.63;;;677.08;;
47161;SDS011;32921;53.256;8.198;2023-12-14T04:27:45;774.03;;;712.45;;
47161;SDS011;32921;53.256;8.198;2023-12-14T04:30:11;754.05;;;694.17;;
47161;SDS011;32921;53.256;8.198;2023-12-14T04:32:37;807.97;;;742.75;;
47161;SDS011;32921;53.256;8.198;2023-12-14T04:35:03;792.00;;;727.38;;
47161;SDS011;32921;53.256;8.198;2023-12-14T04:37:30;770.28;;;708.60;;
47161;SDS011;32921;53.256;8.198;2023-12-14T04:39:57;799.08;;;734.25;;
47161;SDS011;32921;53.256;8.198;2023-12-14T04:42:22;797.63;;;732.47;;
47161;SDS011;32921;53.256;8.198;2023-12-14T04:44:48;767.75;;;706.47;;
47161;SDS011;32921;53.256;8.198;2023-12-14T04:47:13;797.60;;;733.58;;
47161;SDS011;32921;53.256;8.198;2023-12-14T04:49:39;773.50;;;711.83;;
47161;SDS011;32921;53.256;8.198;2023-12-14T04:52:05;812.08;;;746.58;;
47161;SDS011;32921;53.256;8.198;2023-12-14T04:54:31;758.42;;;697.85;;
47161;SDS011;32921;53.256;8.198;2023-12-14T04:56:57;788.42;;;724.47;;
47161;SDS011;32921;53.256;8.198;2023-12-14T04:59:22;786.58;;;722.60;;
47161;SDS011;32921;53.256;8.198;2023-12-14T05:01:48;812.35;;;745.97;;
47161;SDS011;32921;53.256;8.198;2023-12-14T05:04:13;777.25;;;714.17;;
47161;SDS011;32921;53.256;8.198;2023-12-14T05:06:39;814.92;;;747.95;;
47161;SDS011;32921;53.256;8.198;2023-12-14T05:09:05;785.05;;;720.72;;
47161;SDS011;32921;53.256;8.198;2023-12-14T05:11:31;826.25;;;758.60;;
47161;SDS011;32921;53.256;8.198;2023-12-14T05:13:57;803.33;;;738.20;;
47161;SDS011;32921;53.256;8.198;2023-12-14T05:16:23;796.42;;;730.25;;
47161;SDS011;32921;53.256;8.198;2023-12-14T05:18:55;772.28;;;709.55;;
47161;SDS011;32921;53.256;8.198;2023-12-14T05:21:22;781.00;;;719.15;;
47161;SDS011;32921;53.256;8.198;2023-12-14T05:23:48;751.67;;;692.67;;
47161;SDS011;32921;53.256;8.198;2023-12-14T05:26:13;739.95;;;680.28;;
47161;SDS011;32921;53.256;8.198;2023-12-14T05:28:40;771.15;;;709.97;;
47161;SDS011;32921;53.256;8.198;2023-12-14T05:31:05;742.17;;;682.53;;
47161;SDS011;32921;53.256;8.198;2023-12-14T05:33:31;766.15;;;705.13;;
47161;SDS011;32921;53.256;8.198;2023-12-14T05:35:58;772.22;;;709.38;;
47161;SDS011;32921;53.256;8.198;2023-12-14T05:38:24;802.28;;;736.45;;
47161;SDS011;32921;53.256;8.198;2023-12-14T05:40:50;811.72;;;744.45;;
47161;SDS011;32921;53.256;8.198;2023-12-14T05:43:15;789.47;;;725.78;;
47161;SDS011;32921;53.256;8.198;2023-12-14T05:45:41;785.40;;;722.72;;
47161;SDS011;32921;53.256;8.198;2023-12-14T05:48:06;762.58;;;701.88;;
47161;SDS011;32921;53.256;8.198;2023-12-14T05:50:32;749.97;;;689.55;;
47161;SDS011;32921;53.256;8.198;2023-12-14T05:52:58;795.17;;;730.00;;
47161;SDS011;32921;53.256;8.198;2023-12-14T05:55:23;795.78;;;730.58;;
47161;SDS011;32921;53.256;8.198;2023-12-14T05:57:49;790.50;;;726.80;;
47161;SDS011;32921;53.256;8.198;2023-12-14T06:00:15;733.63;;;675.13;;
47161;SDS011;32921;53.256;8.198;2023-12-14T06:02:43;793.67;;;728.72;;
47161;SDS011;32921;53.256;8.198;2023-12-14T06:05:08;776.92;;;714.50;;
47161;SDS011;32921;53.256;8.198;2023-12-14T06:07:34;740.67;;;682.08;;
47161;SDS011;32921;53.256;8.198;2023-12-14T06:10:00;749.05;;;689.60;;
47161;SDS011;32921;53.256;8.198;2023-12-14T06:12:26;762.58;;;703.40;;
47161;SDS011;32921;53.256;8.198;2023-12-14T06:14:52;734.60;;;675.63;;
47161;SDS011;32921;53.256;8.198;2023-12-14T06:17:17;704.85;;;650.00;;
47161;SDS011;32921;53.256;8.198;2023-12-14T06:19:43;729.20;;;672.60;;
47161;SDS011;32921;53.256;8.198;2023-12-14T06:22:09;709.20;;;654.13;;
47161;SDS011;32921;53.256;8.198;2023-12-14T06:24:34;700.83;;;647.28;;
47161;SDS011;32921;53.256;8.198;2023-12-14T06:27:00;659.53;;;609.85;;
47161;SDS011;32921;53.256;8.198;2023-12-14T06:29:25;699.10;;;644.28;;
47161;SDS011;32921;53.256;8.198;2023-12-14T06:31:51;683.72;;;631.33;;
47161;SDS011;32921;53.256;8.198;2023-12-14T06:34:17;712.72;;;657.33;;
47161;SDS011;32921;53.256;8.198;2023-12-14T06:36:43;668.08;;;617.78;;
47161;SDS011;32921;53.256;8.198;2023-12-14T06:39:10;663.25;;;613.33;;
47161;SDS011;32921;53.256;8.198;2023-12-14T06:41:35;657.15;;;608.25;;
47161;SDS011;32921;53.256;8.198;2023-12-14T06:44:01;607.70;;;562.55;;
47161;SDS011;32921;53.256;8.198;2023-12-14T06:46:27;586.10;;;542.88;;
47161;SDS011;32921;53.256;8.198;2023-12-14T06:48:53;592.53;;;549.63;;
47161;SDS011;32921;53.256;8.198;2023-12-14T06:51:20;615.00;;;569.17;;
47161;SDS011;32921;53.256;8.198;2023-12-14T06:53:46;619.72;;;573.30;;
47161;SDS011;32921;53.256;8.198;2023-12-14T06:56:12;562.42;;;520.20;;
47161;SDS011;32921;53.256;8.198;2023-12-14T06:58:42;583.97;;;540.72;;
47161;SDS011;32921;53.256;8.198;2023-12-14T07:01:15;652.33;;;603.58;;
47161;SDS011;32921;53.256;8.198;2023-12-14T07:03:42;649.63;;;600.03;;
47161;SDS011;32921;53.256;8.198;2023-12-14T07:06:15;681.28;;;629.85;;
47161;SDS011;32921;53.256;8.198;2023-12-14T07:08:42;745.22;;;686.80;;
47161;SDS011;32921;53.256;8.198;2023-12-14T07:11:08;744.53;;;686.55;;
47161;SDS011;32921;53.256;8.198;2023-12-14T07:13:34;763.72;;;703.28;;
47161;SDS011;32921;53.256;8.198;2023-12-14T07:16:02;778.53;;;716.45;;
47161;SDS011;32921;53.256;8.198;2023-12-14T07:18:30;768.35;;;705.63;;
47161;SDS011;32921;53.256;8.198;2023-12-14T07:20:56;798.33;;;733.80;;
47161;SDS011;32921;53.256;8.198;2023-12-14T07:23:21;764.28;;;703.25;;
47161;SDS011;32921;53.256;8.198;2023-12-14T07:25:47;817.42;;;750.75;;
47161;SDS011;32921;53.256;8.198;2023-12-14T07:28:12;794.78;;;730.20;;
47161;SDS011;32921;53.256;8.198;2023-12-14T07:30:38;819.78;;;753.28;;
47161;SDS011;32921;53.256;8.198;2023-12-14T07:33:04;806.88;;;741.92;;
47161;SDS011;32921;53.256;8.198;2023-12-14T07:35:29;820.38;;;753.90;;
47161;SDS011;32921;53.256;8.198;2023-12-14T07:37:55;774.05;;;711.65;;
47161;SDS011;32921;53.256;8.198;2023-12-14T07:40:20;788.65;;;723.28;;
47161;SDS011;32921;53.256;8.198;2023-12-14T07:42:46;795.38;;;729.75;;
47161;SDS011;32921;53.256;8.198;2023-12-14T07:45:12;747.85;;;688.10;;
47161;SDS011;32921;53.256;8.198;2023-12-14T07:47:37;786.40;;;723.10;;
47161;SDS011;32921;53.256;8.198;2023-12-14T07:50:03;845.75;;;775.90;;
47161;SDS011;32921;53.256;8.198;2023-12-14T07:52:29;852.13;;;779.80;;
47161;SDS011;32921;53.256;8.198;2023-12-14T07:54:55;828.85;;;759.83;;
47161;SDS011;32921;53.256;8.198;2023-12-14T07:57:20;849.38;;;778.47;;
47161;SDS011;32921;53.256;8.198;2023-12-14T07:59:46;816.47;;;748.97;;
47161;SDS011;32921;53.256;8.198;2023-12-14T08:02:12;813.45;;;746.38;;
47161;SDS011;32921;53.256;8.198;2023-12-14T08:04:37;862.60;;;788.92;;
47161;SDS011;32921;53.256;8.198;2023-12-14T08:07:03;869.22;;;795.83;;
47161;SDS011;32921;53.256;8.198;2023-12-14T08:09:28;848.67;;;777.95;;
47161;SDS011;32921;53.256;8.198;2023-12-14T08:11:54;847.45;;;777.20;;
47161;SDS011;32921;53.256;8.198;2023-12-14T08:14:19;875.90;;;802.55;;
47161;SDS011;32921;53.256;8.198;2023-12-14T08:16:45;813.42;;;746.20;;
47161;SDS011;32921;53.256;8.198;2023-12-14T08:19:10;830.75;;;762.53;;
47161;SDS011;32921;53.256;8.198;2023-12-14T08:21:36;861.70;;;789.03;;
47161;SDS011;32921;53.256;8.198;2023-12-14T08:24:02;806.67;;;740.97;;
47161;SDS011;32921;53.256;8.198;2023-12-14T08:26:27;824.38;;;756.20;;
47161;SDS011;32921;53.256;8.198;2023-12-14T08:28:53;851.08;;;780.13;;
47161;SDS011;32921;53.256;8.198;2023-12-14T08:31:19;850.58;;;779.45;;
47161;SDS011;32921;53.256;8.198;2023-12-14T08:33:44;863.17;;;790.75;;
47161;SDS011;32921;53.256;8.198;2023-12-14T08:36:10;847.72;;;777.38;;
47161;SDS011;32921;53.256;8.198;2023-12-14T08:38:40;846.92;;;777.55;;
47161;SDS011;32921;53.256;8.198;2023-12-14T08:41:06;836.35;;;767.83;;
47161;SDS011;32921;53.256;8.198;2023-12-14T08:43:31;834.28;;;765.88;;
47161;SDS011;32921;53.256;8.198;2023-12-14T08:45:57;855.33;;;784.97;;
47161;SDS011;32921;53.256;8.198;2023-12-14T08:48:22;866.70;;;794.67;;
47161;SDS011;32921;53.256;8.198;2023-12-14T08:50:48;869.80;;;798.03;;
47161;SDS011;32921;53.256;8.198;2023-12-14T08:53:14;764.47;;;704.17;;
47161;SDS011;32921;53.256;8.198;2023-12-14T08:55:40;759.55;;;699.95;;
47161;SDS011;32921;53.256;8.198;2023-12-14T08:58:05;787.88;;;725.38;;
47161;SDS011;32921;53.256;8.198;2023-12-14T09:00:31;787.88;;;725.65;;
47161;SDS011;32921;53.256;8.198;2023-12-14T09:02:56;798.72;;;736.03;;
47161;SDS011;32921;53.256;8.198;2023-12-14T09:05:23;836.75;;;769.78;;
47161;SDS011;32921;53.256;8.198;2023-12-14T09:07:49;793.10;;;730.92;;
47161;SDS011;32921;53.256;8.198;2023-12-14T09:10:17;850.67;;;781.45;;
47161;SDS011;32921;53.256;8.198;2023-12-14T09:12:43;818.83;;;753.22;;
47161;SDS011;32921;53.256;8.198;2023-12-14T09:15:09;880.85;;;809.00;;
47161;SDS011;32921;53.256;8.198;2023-12-14T09:17:34;827.03;;;760.35;;
47161;SDS011;32921;53.256;8.198;2023-12-14T09:20:00;834.45;;;767.75;;
47161;SDS011;32921;53.256;8.198;2023-12-14T09:22:26;850.95;;;782.42;;
47161;SDS011;32921;53.256;8.198;2023-12-14T09:24:52;806.03;;;742.25;;
47161;SDS011;32921;53.256;8.198;2023-12-14T09:27:17;802.72;;;739.40;;
47161;SDS011;32921;53.256;8.198;2023-12-14T09:29:43;773.97;;;714.95;;
47161;SDS011;32921;53.256;8.198;2023-12-14T09:32:09;711.40;;;658.08;;
47161;SDS011;32921;53.256;8.198;2023-12-14T09:34:34;722.65;;;667.95;;
47161;SDS011;32921;53.256;8.198;2023-12-14T09:37:00;683.25;;;632.33;;
47161;SDS011;32921;53.256;8.198;2023-12-14T09:39:26;680.33;;;630.03;;
47161;SDS011;32921;53.256;8.198;2023-12-14T09:41:53;634.22;;;588.70;;
47161;SDS011;32921;53.256;8.198;2023-12-14T09:44:32;638.03;;;591.90;;
47161;SDS011;32921;53.256;8.198;2023-12-14T09:46:59;609.25;;;565.10;;
47161;SDS011;32921;53.256;8.198;2023-12-14T09:49:31;530.92;;;494.05;;
47161;SDS011;32921;53.256;8.198;2023-12-14T09:51:57;530.03;;;493.52;;
47161;SDS011;32921;53.256;8.198;2023-12-14T09:54:24;516.70;;;481.40;;
47161;SDS011;32921;53.256;8.198;2023-12-14T09:56:51;504.52;;;470.45;;
47161;SDS011;32921;53.256;8.198;2023-12-14T09:59:18;483.10;;;450.88;;
47161;SDS011;32921;53.256;8.198;2023-12-14T10:01:44;471.77;;;439.73;;
47161;SDS011;32921;53.256;8.198;2023-12-14T10:06:38;473.17;;;441.95;;
47161;SDS011;32921;53.256;8.198;2023-12-14T10:09:04;453.17;;;422.92;;
47161;SDS011;32921;53.256;8.198;2023-12-14T10:11:34;484.52;;;451.92;;
47161;SDS011;32921;53.256;8.198;2023-12-14T10:14:03;443.65;;;414.15;;
47161;SDS011;32921;53.256;8.198;2023-12-14T10:16:42;479.63;;;447.50;;
47161;SDS011;32921;53.256;8.198;2023-12-14T10:19:07;480.50;;;447.73;;
47161;SDS011;32921;53.256;8.198;2023-12-14T10:21:33;469.10;;;437.23;;
47161;SDS011;32921;53.256;8.198;2023-12-14T10:24:01;518.17;;;482.55;;
47161;SDS011;32921;53.256;8.198;2023-12-14T10:26:27;497.27;;;463.17;;
47161;SDS011;32921;53.256;8.198;2023-12-14T10:28:53;486.67;;;452.67;;
47161;SDS011;32921;53.256;8.198;2023-12-14T10:31:19;490.30;;;454.60;;
47161;SDS011;32921;53.256;8.198;2023-12-14T10:33:45;492.27;;;458.08;;
47161;SDS011;32921;53.256;8.198;2023-12-14T10:36:12;534.05;;;496.20;;
47161;SDS011;32921;53.256;8.198;2023-12-14T10:38:39;498.42;;;463.48;;
47161;SDS011;32921;53.256;8.198;2023-12-14T10:41:08;556.30;;;517.40;;
47161;SDS011;32921;53.256;8.198;2023-12-14T10:43:37;554.83;;;515.47;;
47161;SDS011;32921;53.256;8.198;2023-12-14T10:48:32;428.63;;;400.63;;
47161;SDS011;32921;53.256;8.198;2023-12-14T10:51:06;511.38;;;475.73;;
47161;SDS011;32921;53.256;8.198;2023-12-14T10:53:33;560.55;;;520.25;;
47161;SDS011;32921;53.256;8.198;2023-12-14T10:56:00;525.20;;;487.67;;
47161;SDS011;32921;53.256;8.198;2023-12-14T10:58:53;547.95;;;508.65;;
47161;SDS011;32921;53.256;8.198;2023-12-14T11:01:22;566.83;;;525.70;;
47161;SDS011;32921;53.256;8.198;2023-12-14T11:03:49;558.22;;;517.40;;
47161;SDS011;32921;53.256;8.198;2023-12-14T11:08:53;607.88;;;563.25;;
47161;SDS011;32921;53.256;8.198;2023-12-14T11:11:20;617.65;;;571.72;;
47161;SDS011;32921;53.256;8.198;2023-12-14T11:13:50;637.95;;;589.97;;
47161;SDS011;32921;53.256;8.198;2023-12-14T11:16:25;635.55;;;588.10;;
47161;SDS011;32921;53.256;8.198;2023-12-14T11:24:36;675.35;;;623.25;;
47161;SDS011;32921;53.256;8.198;2023-12-14T11:27:06;705.95;;;650.83;;
47161;SDS011;32921;53.256;8.198;2023-12-14T11:29:32;693.28;;;639.75;;
47161;SDS011;32921;53.256;8.198;2023-12-14T11:31:58;692.00;;;638.40;;
47161;SDS011;32921;53.256;8.198;2023-12-14T11:34:24;713.53;;;657.85;;
47161;SDS011;32921;53.256;8.198;2023-12-14T11:36:50;695.83;;;641.67;;
47161;SDS011;32921;53.256;8.198;2023-12-14T11:39:15;679.60;;;627.28;;
47161;SDS011;32921;53.256;8.198;2023-12-14T11:41:41;706.20;;;650.58;;
47161;SDS011;32921;53.256;8.198;2023-12-14T11:44:06;727.40;;;670.28;;
47161;SDS011;32921;53.256;8.198;2023-12-14T11:46:32;724.08;;;667.05;;
47161;SDS011;32921;53.256;8.198;2023-12-14T11:48:58;726.78;;;669.17;;
47161;SDS011;32921;53.256;8.198;2023-12-14T11:51:24;762.67;;;700.50;;
47161;SDS011;32921;53.256;8.198;2023-12-14T11:53:55;748.08;;;687.67;;
47161;SDS011;32921;53.256;8.198;2023-12-14T11:58:56;725.78;;;667.35;;
47161;SDS011;32921;53.256;8.198;2023-12-14T12:01:21;740.53;;;678.78;;
47161;SDS011;32921;53.256;8.198;2023-12-14T12:03:48;713.92;;;655.80;;
47161;SDS011;32921;53.256;8.198;2023-12-14T12:06:20;723.33;;;663.60;;
47161;SDS011;32921;53.256;8.198;2023-12-14T12:08:47;729.83;;;670.35;;
47161;SDS011;32921;53.256;8.198;2023-12-14T12:11:23;718.15;;;659.78;;
47161;SDS011;32921;53.256;8.198;2023-12-14T12:13:52;725.72;;;664.97;;
47161;SDS011;32921;53.256;8.198;2023-12-14T12:16:19;735.83;;;673.33;;
47161;SDS011;32921;53.256;8.198;2023-12-14T12:18:45;771.80;;;704.75;;
47161;SDS011;32921;53.256;8.198;2023-12-14T12:21:11;766.28;;;699.90;;
47161;SDS011;32921;53.256;8.198;2023-12-14T12:23:37;749.60;;;683.47;;
47161;SDS011;32921;53.256;8.198;2023-12-14T12:26:03;695.97;;;637.10;;
47161;SDS011;32921;53.256;8.198;2023-12-14T12:28:30;733.45;;;671.28;;
47161;SDS011;32921;53.256;8.198;2023-12-14T12:30:56;696.83;;;639.65;;
47161;SDS011;32921;53.256;8.198;2023-12-14T12:33:22;679.90;;;624.10;;
47161;SDS011;32921;53.256;8.198;2023-12-14T12:35:48;751.78;;;687.60;;
47161;SDS011;32921;53.256;8.198;2023-12-14T12:38:14;719.45;;;657.60;;
47161;SDS011;32921;53.256;8.198;2023-12-14T12:40:41;723.63;;;660.65;;
47161;SDS011;32921;53.256;8.198;2023-12-14T12:43:07;744.00;;;678.45;;
47161;SDS011;32921;53.256;8.198;2023-12-14T12:45:33;704.00;;;643.53;;
47161;SDS011;32921;53.256;8.198;2023-12-14T12:48:00;731.17;;;665.33;;
47161;SDS011;32921;53.256;8.198;2023-12-14T12:50:28;728.03;;;662.88;;
47161;SDS011;32921;53.256;8.198;2023-12-14T12:52:53;767.58;;;699.85;;
47161;SDS011;32921;53.256;8.198;2023-12-14T12:55:19;765.35;;;696.20;;
47161;SDS011;32921;53.256;8.198;2023-12-14T12:57:44;746.75;;;680.80;;
47161;SDS011;32921;53.256;8.198;2023-12-14T13:00:10;745.95;;;679.47;;
47161;SDS011;32921;53.256;8.198;2023-12-14T13:02:45;713.58;;;650.55;;
47161;SDS011;32921;53.256;8.198;2023-12-14T13:05:11;758.88;;;691.42;;
47161;SDS011;32921;53.256;8.198;2023-12-14T13:07:37;709.92;;;647.92;;
47161;SDS011;32921;53.256;8.198;2023-12-14T13:10:03;694.22;;;633.78;;
47161;SDS011;32921;53.256;8.198;2023-12-14T13:12:31;674.15;;;616.28;;
47161;SDS011;32921;53.256;8.198;2023-12-14T13:14:56;644.95;;;589.67;;
47161;SDS011;32921;53.256;8.198;2023-12-14T13:17:22;681.15;;;620.45;;
47161;SDS011;32921;53.256;8.198;2023-12-14T13:19:48;646.22;;;589.33;;
47161;SDS011;32921;53.256;8.198;2023-12-14T13:22:14;673.35;;;612.78;;
47161;SDS011;32921;53.256;8.198;2023-12-14T13:24:39;665.72;;;607.67;;
47161;SDS011;32921;53.256;8.198;2023-12-14T13:27:05;635.08;;;580.30;;
47161;SDS011;32921;53.256;8.198;2023-12-14T13:29:31;677.17;;;616.53;;
47161;SDS011;32921;53.256;8.198;2023-12-14T13:31:57;701.67;;;638.45;;
47161;SDS011;32921;53.256;8.198;2023-12-14T13:34:24;661.33;;;602.13;;
47161;SDS011;32921;53.256;8.198;2023-12-14T13:36:50;708.35;;;644.00;;
47161;SDS011;32921;53.256;8.198;2023-12-14T13:39:16;724.50;;;657.53;;
47161;SDS011;32921;53.256;8.198;2023-12-14T13:41:41;727.17;;;662.33;;
47161;SDS011;32921;53.256;8.198;2023-12-14T13:44:07;684.85;;;623.40;;
47161;SDS011;32921;53.256;8.198;2023-12-14T13:46:32;733.00;;;665.83;;
47161;SDS011;32921;53.256;8.198;2023-12-14T13:48:58;681.65;;;620.78;;
47161;SDS011;32921;53.256;8.198;2023-12-14T13:51:24;759.97;;;689.08;;
47161;SDS011;32921;53.256;8.198;2023-12-14T13:53:50;703.08;;;639.28;;
47161;SDS011;32921;53.256;8.198;2023-12-14T13:56:16;693.50;;;631.58;;
47161;SDS011;32921;53.256;8.198;2023-12-14T13:58:41;717.85;;;651.67;;
47161;SDS011;32921;53.256;8.198;2023-12-14T14:01:07;776.83;;;705.35;;
47161;SDS011;32921;53.256;8.198;2023-12-14T14:03:33;742.33;;;674.00;;
47161;SDS011;32921;53.256;8.198;2023-12-14T14:06:00;738.83;;;671.40;;
47161;SDS011;32921;53.256;8.198;2023-12-14T14:08:27;694.08;;;632.47;;